createdAt,value
2023-01-11T02:15:02.135Z,1.20
2023-01-11T02:17:29.772Z,0.80
2023-01-11T02:20:07.183Z,0.90
2023-01-11T02:23:01.784Z,0.90
2023-01-11T02:26:05.177Z,1.05
2023-01-11T02:28:42.475Z,1.00
2023-01-11T02:31:20.210Z,0.80
2023-01-11T02:33:56.698Z,0.88
2023-01-11T02:36:32.573Z,0.75
2023-01-11T02:39:08.691Z,0.90
2023-01-11T02:42:05.305Z,0.93
2023-01-11T02:44:58.398Z,0.98
2023-01-11T02:47:35.469Z,1.00
2023-01-11T02:50:10.489Z,0.93
2023-01-11T02:52:45.176Z,0.90
2023-01-11T02:55:16.232Z,0.90
2023-01-11T02:57:45.088Z,0.90
2023-01-11T03:00:41.760Z,0.90
2023-01-11T03:03:15.235Z,0.90
2023-01-11T03:05:48.920Z,0.90
2023-01-11T03:08:32.207Z,1.33
2023-01-11T03:11:07.644Z,0.90
2023-01-11T03:13:45.679Z,0.90
2023-01-11T03:16:24.246Z,0.98
2023-01-11T03:19:01.027Z,0.90
2023-01-11T03:21:47.161Z,0.90
2023-01-11T03:24:27.145Z,0.95
2023-01-11T03:27:09.435Z,0.80
2023-01-11T03:32:23.114Z,0.82
2023-01-11T03:35:03.048Z,0.90
2023-01-11T03:37:38.252Z,0.90
2023-01-11T03:40:11.627Z,0.90
2023-01-11T03:43:04.171Z,1.00
2023-01-11T03:45:40.605Z,0.80
2023-01-11T03:48:15.280Z,0.90
2023-01-11T03:50:48.577Z,0.80
2023-01-11T03:53:19.270Z,0.98
2023-01-11T03:55:50.625Z,0.90
2023-01-11T03:58:18.504Z,0.80
2023-01-11T04:00:47.180Z,0.90
2023-01-11T04:03:16.274Z,0.90
2023-01-11T04:05:48.538Z,0.77
2023-01-11T04:08:16.168Z,0.90
2023-01-11T04:11:09.131Z,0.90
2023-01-11T04:13:37.010Z,0.95
2023-01-11T04:16:05.176Z,0.90
2023-01-11T04:18:34.141Z,1.02
2023-01-11T04:21:03.400Z,0.88
2023-01-11T04:23:30.958Z,0.90
2023-01-11T04:25:58.592Z,0.93
2023-01-11T04:28:27.603Z,0.95
2023-01-11T04:30:56.287Z,1.00
2023-01-11T04:33:24.600Z,0.90
2023-01-11T04:35:53.581Z,0.90
2023-01-11T04:38:24.887Z,0.90
2023-01-11T04:41:14.186Z,1.00
2023-01-11T04:43:41.365Z,0.90
2023-01-11T04:46:14.176Z,1.02
2023-01-11T04:48:43.173Z,1.17
2023-01-11T04:51:37.599Z,1.30
2023-01-11T04:54:29.938Z,1.10
2023-01-11T04:56:58.988Z,0.90
2023-01-11T04:59:26.682Z,0.93
2023-01-11T05:01:55.179Z,0.90
2023-01-11T05:04:23.300Z,1.00
2023-01-11T05:06:52.559Z,0.98
2023-01-11T05:09:20.523Z,1.10
2023-01-11T05:11:48.703Z,0.80
2023-01-11T05:14:20.174Z,1.00
2023-01-11T05:16:48.795Z,1.05
2023-01-11T05:19:16.409Z,1.20
2023-01-11T05:21:45.280Z,1.35
2023-01-11T05:24:18.173Z,1.95
2023-01-11T05:26:48.286Z,1.73
2023-01-11T05:29:17.139Z,1.50
2023-01-11T05:31:50.272Z,1.50
2023-01-11T05:34:18.862Z,1.00
2023-01-11T05:36:46.511Z,1.10
2023-01-11T05:39:15.876Z,0.90
2023-01-11T05:41:43.534Z,0.90
2023-01-11T05:44:30.101Z,0.98
2023-01-11T05:46:58.202Z,1.00
2023-01-11T05:49:26.255Z,1.10
2023-01-11T05:51:53.953Z,1.20
2023-01-11T05:54:23.279Z,1.20
2023-01-11T05:56:50.880Z,1.27
2023-01-11T05:59:22.173Z,1.35
2023-01-11T06:01:49.944Z,1.10
2023-01-11T06:04:18.191Z,1.33
2023-01-11T06:06:47.800Z,1.70
2023-01-11T06:09:16.165Z,1.50
2023-01-11T06:11:45.287Z,1.50
2023-01-11T06:14:13.983Z,1.80
2023-01-11T06:16:41.599Z,1.80
2023-01-11T06:19:11.802Z,1.73
2023-01-11T06:21:39.838Z,2.30
2023-01-11T06:24:08.030Z,1.90
2023-01-11T06:26:35.629Z,2.40
2023-01-11T06:29:04.614Z,2.50
2023-01-11T06:31:32.528Z,2.58
2023-01-11T06:34:00.706Z,2.35
2023-01-11T06:36:29.918Z,2.58
2023-01-11T06:38:57.623Z,2.65
2023-01-11T06:41:28.566Z,2.42
2023-01-11T06:46:53.187Z,3.00
2023-01-11T06:49:20.780Z,2.95
2023-01-11T06:51:49.235Z,2.72
2023-01-11T06:54:21.830Z,2.80
2023-01-11T06:56:49.717Z,3.00
2023-01-11T06:59:17.595Z,3.05
2023-01-11T07:01:45.724Z,2.72
2023-01-11T07:04:14.711Z,2.92
2023-01-11T07:06:44.174Z,2.83
2023-01-11T07:09:13.718Z,3.00
2023-01-11T07:11:42.311Z,3.05
2023-01-11T07:14:15.047Z,2.85
2023-01-11T07:16:43.326Z,2.78
2023-01-11T07:19:10.929Z,2.83
2023-01-11T07:21:40.173Z,2.33
2023-01-11T07:24:08.338Z,2.78
2023-01-11T07:26:41.021Z,2.70
2023-01-11T07:29:09.086Z,2.40
2023-01-11T07:31:36.906Z,2.50
2023-01-11T07:34:05.178Z,2.63
2023-01-11T07:36:36.706Z,2.40
2023-01-11T07:39:05.756Z,2.30
2023-01-11T07:41:51.430Z,2.30
2023-01-11T07:44:19.770Z,2.65
2023-01-11T07:46:47.820Z,2.50
2023-01-11T07:49:15.737Z,2.28
2023-01-11T07:51:43.324Z,2.53
2023-01-11T07:54:12.491Z,2.60
2023-01-11T07:56:41.679Z,3.00
2023-01-11T07:59:14.283Z,3.10
2023-01-11T08:01:41.917Z,3.30
2023-01-11T08:04:13.116Z,3.30
2023-01-11T08:06:42.797Z,3.38
2023-01-11T08:09:13.282Z,3.05
2023-01-11T08:12:01.380Z,3.58
2023-01-11T08:14:41.833Z,3.47
2023-01-11T08:17:15.162Z,3.33
2023-01-11T08:19:45.186Z,3.80
2023-01-11T08:22:13.169Z,3.92
2023-01-11T08:24:43.201Z,4.00
2023-01-11T08:27:11.376Z,3.38
2023-01-11T08:29:39.761Z,4.13
2023-01-11T08:32:07.534Z,3.63
2023-01-11T08:34:35.937Z,3.40
2023-01-11T08:37:08.203Z,4.13
2023-01-11T08:39:37.167Z,4.20
2023-01-11T08:42:07.152Z,4.20
2023-01-11T08:44:35.326Z,3.92
2023-01-11T08:47:03.113Z,4.20
2023-01-11T08:49:31.227Z,4.10
2023-01-11T08:51:58.834Z,3.65
2023-01-11T08:54:26.667Z,4.35
2023-01-11T08:56:54.317Z,4.35
2023-01-11T08:59:23.554Z,4.65
2023-01-11T09:01:51.211Z,4.22
2023-01-11T09:04:25.265Z,4.70
2023-01-11T09:06:53.821Z,4.18
2023-01-11T09:09:21.584Z,4.70
2023-01-11T09:11:58.708Z,4.40
2023-01-11T09:14:29.223Z,4.95
2023-01-11T09:16:57.508Z,4.80
2023-01-11T09:19:30.186Z,4.68
2023-01-11T09:22:00.444Z,4.55
2023-01-11T09:24:28.101Z,4.07
2023-01-11T09:26:56.334Z,4.18
2023-01-11T09:29:27.709Z,3.60
2023-01-11T09:31:56.252Z,3.90
2023-01-11T09:34:27.214Z,3.88
2023-01-11T09:39:28.200Z,3.65
2023-01-11T09:42:19.232Z,4.40
2023-01-11T09:44:52.273Z,4.20
2023-01-11T09:47:30.785Z,4.25
2023-01-11T09:50:01.323Z,4.60
2023-01-11T09:52:56.204Z,4.50
2023-01-11T09:55:33.363Z,5.28
2023-01-11T09:58:34.880Z,5.53
2023-01-11T10:01:13.736Z,5.00
2023-01-11T10:04:06.253Z,4.70
2023-01-11T10:06:45.750Z,5.38
2023-01-11T10:18:30.455Z,5.47
2023-01-11T10:19:18.427Z,5.07
2023-01-11T10:21:45.526Z,4.72
2023-01-11T10:24:22.061Z,4.97
2023-01-11T10:26:55.219Z,4.95
2023-01-11T10:29:46.148Z,5.38
2023-01-11T10:32:45.501Z,5.57
2023-01-11T10:35:37.060Z,4.38
2023-01-11T10:38:29.289Z,4.65
2023-01-11T10:41:04.612Z,4.68
2023-01-11T10:43:35.396Z,5.38
2023-01-11T10:46:09.191Z,4.00
2023-01-11T10:48:39.173Z,3.95
2023-01-11T10:51:20.213Z,3.67
2023-01-11T10:54:00.141Z,3.85
2023-01-11T10:57:01.870Z,3.78
2023-01-11T11:00:18.373Z,3.42
2023-01-11T11:03:03.343Z,3.22
2023-01-11T11:05:44.004Z,3.05
2023-01-11T11:08:20.817Z,3.38
2023-01-11T11:10:57.457Z,3.63
2023-01-11T11:13:36.652Z,3.50
2023-01-11T11:16:12.384Z,3.80
2023-01-11T11:18:40.089Z,3.67
2023-01-11T11:21:24.762Z,3.72
2023-01-11T11:23:57.987Z,3.28
2023-01-11T11:26:30.199Z,3.03
2023-01-11T11:29:02.629Z,3.00
2023-01-11T11:31:31.816Z,3.33
2023-01-11T11:34:06.867Z,3.30
2023-01-11T11:36:42.352Z,3.30
2023-01-11T11:39:20.974Z,3.53
2023-01-11T11:41:51.203Z,3.38
2023-01-11T11:44:24.141Z,4.18
2023-01-11T11:47:02.413Z,3.17
2023-01-11T11:49:32.424Z,3.33
2023-01-11T11:52:03.202Z,2.78
2023-01-11T11:54:34.908Z,3.42
2023-01-11T11:57:15.603Z,2.97
2023-01-11T12:02:25.260Z,2.72
2023-01-11T12:04:55.242Z,3.00
2023-01-11T12:07:55.316Z,2.90
2023-01-11T12:10:27.062Z,2.78
2023-01-11T12:12:56.526Z,3.17
2023-01-11T12:15:27.141Z,2.80
2023-01-11T12:17:55.502Z,2.95
2023-01-11T12:20:42.325Z,3.42
2023-01-11T12:23:14.823Z,3.47
2023-01-11T12:25:57.379Z,3.50
2023-01-11T12:28:37.971Z,3.95
2023-01-11T12:31:38.593Z,3.63
2023-01-11T12:34:17.394Z,3.42
2023-01-11T12:36:54.042Z,3.72
2023-01-11T12:39:40.323Z,3.50
2023-01-11T12:42:34.403Z,3.80
2023-01-11T12:45:16.750Z,3.20
2023-01-11T12:48:18.092Z,2.75
2023-01-11T12:54:07.899Z,3.35
2023-01-11T12:56:57.856Z,2.40
2023-01-11T12:59:44.284Z,2.10
2023-01-11T13:02:31.572Z,2.20
2023-01-11T13:05:15.195Z,2.53
2023-01-11T13:10:48.430Z,2.22
2023-01-11T13:13:21.254Z,2.25
2023-01-11T13:16:19.672Z,2.40
2023-01-11T13:18:53.499Z,2.33
2023-01-11T13:21:30.050Z,2.15
2023-01-11T13:24:03.204Z,2.30
2023-01-11T13:26:36.163Z,2.20
2023-01-11T13:29:16.097Z,3.03
2023-01-11T13:31:49.203Z,2.00
2023-01-11T13:34:26.341Z,2.22
2023-01-11T13:37:02.308Z,2.72
2023-01-11T13:39:59.893Z,2.33
2023-01-11T13:42:32.288Z,2.70
2023-01-11T13:45:09.279Z,2.42
2023-01-11T13:47:45.055Z,2.28
2023-01-11T13:50:21.501Z,2.65
2023-01-11T13:53:01.932Z,2.10
2023-01-11T13:55:37.827Z,2.63
2023-01-11T13:58:12.310Z,2.67
2023-01-11T14:00:45.443Z,2.65
2023-01-11T14:03:24.450Z,2.30
2023-01-11T14:06:03.391Z,2.65
2023-01-11T14:08:55.310Z,2.50
2023-01-11T14:11:31.951Z,3.03
2023-01-11T14:14:18.330Z,2.67
2023-01-11T14:17:11.423Z,2.53
2023-01-11T14:19:49.211Z,2.83
2023-01-11T14:22:27.318Z,2.50
2023-01-11T14:25:02.240Z,2.83
2023-01-11T14:27:52.698Z,2.95
2023-01-11T14:30:42.942Z,2.67
2023-01-11T14:33:45.489Z,2.92
2023-01-11T14:39:13.798Z,3.03
2023-01-11T14:45:25.171Z,3.50
2023-01-11T14:48:15.118Z,2.80
2023-01-11T14:50:54.578Z,3.95
2023-01-11T14:53:51.051Z,3.17
2023-01-11T14:56:48.733Z,2.75
2023-01-11T14:59:38.227Z,3.60
2023-01-11T15:02:31.431Z,3.53
2023-01-11T15:08:11.961Z,3.53
2023-01-11T15:10:48.299Z,3.50
2023-01-11T15:13:20.720Z,3.38
2023-01-11T15:16:08.184Z,3.47
2023-01-11T15:18:46.904Z,3.08
2023-01-11T15:21:26.313Z,3.20
2023-01-11T15:23:58.311Z,3.33
2023-01-11T15:26:29.233Z,3.00
2023-01-11T15:29:26.358Z,3.28
2023-01-11T15:32:07.788Z,3.60
2023-01-11T15:34:43.215Z,3.17
2023-01-11T15:37:57.035Z,3.28
2023-01-11T15:40:32.585Z,3.10
2023-01-11T15:43:38.829Z,3.30
2023-01-11T15:46:59.292Z,3.30
2023-01-11T15:50:24.321Z,3.38
2023-01-11T15:53:27.382Z,3.40
2023-01-11T15:56:18.352Z,3.25
2023-01-11T15:59:20.692Z,3.55
2023-01-11T16:04:31.624Z,3.72
2023-01-11T16:07:04.730Z,2.80
2023-01-11T16:10:03.668Z,3.55
2023-01-11T16:12:45.959Z,2.83
2023-01-11T16:15:40.200Z,3.67
2023-01-11T16:18:18.228Z,2.55
2023-01-11T16:20:59.258Z,2.55
2023-01-11T16:23:26.938Z,3.30
2023-01-11T16:25:58.438Z,3.20
2023-01-11T16:28:27.371Z,2.50
2023-01-11T16:30:59.002Z,2.45
2023-01-11T16:33:32.225Z,2.95
2023-01-11T16:36:13.215Z,3.30
2023-01-11T16:38:53.425Z,3.00
2023-01-11T16:44:30.339Z,2.75
2023-01-11T16:47:18.082Z,2.60
2023-01-11T16:49:49.018Z,2.90
2023-01-11T16:52:38.845Z,2.70
2023-01-11T16:55:34.247Z,2.80
2023-01-11T16:58:05.756Z,2.50
2023-01-11T17:00:39.687Z,2.75
2023-01-11T17:03:24.681Z,2.85
2023-01-11T17:06:17.534Z,2.97
2023-01-11T17:08:48.083Z,2.75
2023-01-11T17:11:26.223Z,3.28
2023-01-11T17:14:10.909Z,2.95
2023-01-11T17:16:41.453Z,2.50
2023-01-11T17:19:16.172Z,3.40
2023-01-11T17:21:49.626Z,3.17
2023-01-11T17:24:19.018Z,2.50
2023-01-11T17:26:50.159Z,2.42
2023-01-11T17:29:22.745Z,3.03
2023-01-11T17:31:50.830Z,2.97
2023-01-11T17:34:28.416Z,2.45
2023-01-11T17:36:58.366Z,2.80
2023-01-11T17:39:29.479Z,3.05
2023-01-11T17:42:16.703Z,3.00
2023-01-11T17:45:03.105Z,3.50
2023-01-11T17:47:31.822Z,3.30
2023-01-11T17:50:02.923Z,3.22
2023-01-11T17:52:38.987Z,3.38
2023-01-11T17:55:17.634Z,3.47
2023-01-11T17:58:11.954Z,2.88
2023-01-11T18:00:40.999Z,2.58
2023-01-11T18:03:14.305Z,3.20
2023-01-11T18:05:44.215Z,3.22
2023-01-11T18:08:20.299Z,2.80
2023-01-11T18:10:54.487Z,2.90
2023-01-11T18:13:27.790Z,2.97
2023-01-11T18:15:55.978Z,2.70
2023-01-11T18:18:42.310Z,3.28
2023-01-11T18:21:43.227Z,2.63
2023-01-11T18:24:39.551Z,2.83
2023-01-11T18:27:15.633Z,3.28
2023-01-11T18:29:51.417Z,2.67
2023-01-11T18:32:20.211Z,2.72
2023-01-11T18:34:51.154Z,3.03
2023-01-11T18:37:20.779Z,3.07
2023-01-11T18:39:48.738Z,2.95
2023-01-11T18:42:19.122Z,2.63
2023-01-11T18:44:49.401Z,2.90
2023-01-11T18:47:20.216Z,2.70
2023-01-11T18:49:48.850Z,2.78
2023-01-11T18:52:17.413Z,2.60
2023-01-11T18:54:46.347Z,3.33
2023-01-11T18:57:14.029Z,3.03
2023-01-11T18:59:41.753Z,2.42
2023-01-11T19:02:29.328Z,2.67
2023-01-11T19:04:58.063Z,2.20
2023-01-11T19:07:26.876Z,2.38
2023-01-11T19:09:56.446Z,3.22
2023-01-11T19:12:24.622Z,2.67
2023-01-11T19:14:52.366Z,2.92
2023-01-11T19:17:20.090Z,2.00
2023-01-11T19:19:47.743Z,2.72
2023-01-11T19:22:15.401Z,2.60
2023-01-11T19:24:43.005Z,2.58
2023-01-11T19:27:15.251Z,2.33
2023-01-11T19:29:43.713Z,2.00
2023-01-11T19:32:11.357Z,2.42
2023-01-11T19:34:40.239Z,2.33
2023-01-11T19:37:07.964Z,2.42
2023-01-11T19:39:38.241Z,3.10
2023-01-11T19:42:06.097Z,2.42
2023-01-11T19:44:38.940Z,3.05
2023-01-11T19:47:12.836Z,2.33
2023-01-11T19:49:42.264Z,2.53
2023-01-11T19:52:12.949Z,2.05
2023-01-11T19:54:41.805Z,2.30
2023-01-11T19:57:11.406Z,2.20
2023-01-11T19:59:41.261Z,2.20
2023-01-11T20:02:10.758Z,2.45
2023-01-11T20:04:39.247Z,2.30
2023-01-11T20:07:08.945Z,2.22
2023-01-11T20:09:37.871Z,2.30
2023-01-11T20:12:06.408Z,2.72
2023-01-11T20:14:34.793Z,2.15
2023-01-11T20:17:04.347Z,2.22
2023-01-11T20:19:31.951Z,2.22
2023-01-11T20:21:59.596Z,2.90
2023-01-11T20:24:29.678Z,2.85
2023-01-11T20:26:58.706Z,2.47
2023-01-11T20:29:27.327Z,2.33
2023-01-11T20:31:55.817Z,3.30
2023-01-11T20:34:25.634Z,2.22
2023-01-11T20:36:53.386Z,2.72
2023-01-11T20:39:21.014Z,2.30
2023-01-11T20:41:48.705Z,2.75
2023-01-11T20:44:18.828Z,2.45
2023-01-11T20:46:48.309Z,2.30
2023-01-11T20:49:17.357Z,2.47
2023-01-11T20:51:47.661Z,3.00
2023-01-11T20:54:16.225Z,2.63
2023-01-11T20:56:46.342Z,2.10
2023-01-11T21:01:49.309Z,2.72
2023-01-11T21:04:19.236Z,2.70
2023-01-11T21:06:49.690Z,2.75
2023-01-11T21:09:18.951Z,2.67
2023-01-11T21:11:52.490Z,2.72
2023-01-11T21:14:21.032Z,2.90
2023-01-11T21:16:48.749Z,2.90
2023-01-11T21:19:16.929Z,2.70
2023-01-11T21:21:44.751Z,1.98
2023-01-11T21:24:15.109Z,2.95
2023-01-11T21:26:45.070Z,2.63
2023-01-11T21:29:13.210Z,2.55
2023-01-11T21:31:42.012Z,2.72
2023-01-11T21:34:11.734Z,2.50
2023-01-11T21:36:39.875Z,2.35
2023-01-11T21:39:09.146Z,2.58
2023-01-11T21:41:59.461Z,2.72
2023-01-11T21:44:30.733Z,2.70
2023-01-11T21:46:58.644Z,2.60
2023-01-11T21:49:26.245Z,2.90
2023-01-11T21:51:53.999Z,2.47
2023-01-11T21:54:21.970Z,2.60
2023-01-11T21:56:51.389Z,2.53
2023-01-11T21:59:21.279Z,2.55
2023-01-11T22:01:49.735Z,2.13
2023-01-11T22:04:20.253Z,2.28
2023-01-11T22:06:51.398Z,2.83
2023-01-11T22:09:19.933Z,2.70
2023-01-11T22:11:47.889Z,2.47
2023-01-11T22:14:16.825Z,2.45
2023-01-11T22:16:44.759Z,2.65
2023-01-11T22:19:12.768Z,2.40
2023-01-11T22:21:40.690Z,2.47
2023-01-11T22:24:10.890Z,2.50
2023-01-11T22:26:39.501Z,2.45
2023-01-11T22:29:16.276Z,2.58
2023-01-11T22:31:48.854Z,2.40
2023-01-11T22:36:45.169Z,2.20
2023-01-11T22:39:19.229Z,3.08
2023-01-11T22:41:49.662Z,2.10
2023-01-11T22:44:17.307Z,2.28
2023-01-11T22:46:49.243Z,2.45
2023-01-11T22:51:49.238Z,2.13
2023-01-11T22:54:17.333Z,2.65
2023-01-11T22:56:45.128Z,2.42
2023-01-11T22:59:12.713Z,2.45
2023-01-11T23:01:42.169Z,3.20
2023-01-11T23:04:14.859Z,2.42
2023-01-11T23:06:44.256Z,2.85
2023-01-11T23:09:16.021Z,2.55
2023-01-11T23:12:02.751Z,2.65
2023-01-11T23:14:31.238Z,2.60
2023-01-11T23:17:00.881Z,2.40
2023-01-11T23:19:31.912Z,2.10
2023-01-11T23:22:00.213Z,2.30
2023-01-11T23:24:27.877Z,2.22
2023-01-11T23:26:55.856Z,1.95
2023-01-11T23:29:23.722Z,2.47
2023-01-11T23:31:51.967Z,2.20
2023-01-11T23:34:19.747Z,2.45
2023-01-11T23:36:49.221Z,2.10
2023-01-11T23:39:18.623Z,2.47
2023-01-11T23:42:04.171Z,3.05
2023-01-11T23:44:32.206Z,2.05
2023-01-11T23:47:17.359Z,2.38
2023-01-11T23:49:45.638Z,1.60
2023-01-11T23:52:14.684Z,1.80
2023-01-11T23:54:43.284Z,2.15
2023-01-11T23:57:12.436Z,2.08
2023-01-11T23:59:40.855Z,2.17
